Terminal Aerodrome Forecast
Issued by NWS

Home | Current Version | Previous Version | Graphics & Text | Print | Product List | Glossary On
Versions: 1 2 3 4 5 6 7 8 9 10 11 12 13 14 15 16 17
000
FTUS43 KICT 070500
TAFRSL
TAF
KRSL 070520Z 0706/0806 15007KT P6SM FEW150
     FM070800 04006KT P6SM SKC
     FM071500 13008KT P6SM SKC
     FM071900 17015G21KT P6SM SCT150
     FM080300 18011KT P6SM VCTS SCT080CB BKN120=

USA.gov is the U.S. government's official web portal to all federal, state and local government web resources and services.